createdAt,value
2022-10-05T00:00:26.460Z,101104.91
2022-10-05T00:02:54.257Z,101054.47
2022-10-05T00:05:32.276Z,101096.56
2022-10-05T00:08:11.656Z,101098.22
2022-10-05T00:10:41.128Z,101094.13
2022-10-05T00:13:18.027Z,101082.06
2022-10-05T00:15:45.121Z,101071.53
2022-10-05T00:18:16.696Z,101056.63
2022-10-05T00:20:44.638Z,101086.03
2022-10-05T00:23:34.960Z,101054.66
2022-10-05T00:26:09.061Z,101080.44
2022-10-05T00:28:35.576Z,101066.63
2022-10-05T00:31:02.137Z,101067.09
2022-10-05T00:33:28.735Z,101080.38
2022-10-05T00:35:55.615Z,101049.47
2022-10-05T00:38:22.320Z,100988.38
2022-10-05T00:41:15.091Z,101082.16
2022-10-05T00:44:19.245Z,101061.50
2022-10-05T00:47:04.023Z,101061.66
2022-10-05T00:49:36.490Z,101066.28
2022-10-05T00:52:35.319Z,101067.13
2022-10-05T00:55:16.959Z,101074.66
2022-10-05T00:58:09.848Z,101051.25
2022-10-05T01:00:45.751Z,101040.31
2022-10-05T01:03:37.039Z,101069.00
2022-10-05T01:06:35.861Z,101069.66
2022-10-05T01:09:14.492Z,101071.94
2022-10-05T01:12:09.566Z,101005.00
2022-10-05T01:14:55.007Z,101057.00
2022-10-05T01:17:24.481Z,101061.81
2022-10-05T01:20:33.532Z,101057.69
2022-10-05T01:23:05.986Z,101054.88
2022-10-05T01:26:06.137Z,101002.53
2022-10-05T01:28:36.174Z,101042.19
2022-10-05T01:31:20.757Z,101044.69
2022-10-05T01:34:11.565Z,101037.25
2022-10-05T01:36:45.969Z,101035.31
2022-10-05T01:39:24.047Z,101032.53
2022-10-05T01:42:03.194Z,101008.66
2022-10-05T01:45:05.644Z,101044.94
2022-10-05T01:47:44.600Z,101039.19
2022-10-05T01:50:30.490Z,101014.50
2022-10-05T01:53:12.149Z,101030.78
2022-10-05T01:56:03.530Z,101009.78
2022-10-05T01:58:55.246Z,101023.41
2022-10-05T02:01:29.398Z,100994.47
2022-10-05T02:04:17.669Z,100988.28
2022-10-05T02:06:52.854Z,100973.72
2022-10-05T02:09:27.782Z,101018.75
2022-10-05T02:12:07.394Z,101011.34
2022-10-05T02:14:38.421Z,101002.56
2022-10-05T02:17:11.325Z,101004.03
2022-10-05T02:19:41.898Z,101001.25
2022-10-05T02:22:11.423Z,100989.56
2022-10-05T02:24:42.213Z,100993.16
2022-10-05T02:27:09.844Z,100994.41
2022-10-05T02:29:40.223Z,100970.09
2022-10-05T02:32:16.115Z,101000.13
2022-10-05T02:34:43.311Z,101007.72
2022-10-05T02:37:25.273Z,101003.50
2022-10-05T02:40:00.889Z,101006.59
2022-10-05T02:42:55.990Z,101007.72
2022-10-05T02:45:50.365Z,101005.72
2022-10-05T02:48:48.825Z,101009.28
2022-10-05T02:51:29.906Z,100938.56
2022-10-05T02:54:21.878Z,101010.75
2022-10-05T02:57:18.956Z,101003.25
2022-10-05T02:59:56.866Z,100998.31
2022-10-05T03:02:33.378Z,101003.31
2022-10-05T03:05:09.631Z,100988.13
2022-10-05T03:07:41.846Z,100996.69
2022-10-05T03:10:13.280Z,100989.53
2022-10-05T03:12:48.891Z,100988.38
2022-10-05T03:15:30.638Z,100978.09
2022-10-05T03:17:57.256Z,100973.84
2022-10-05T03:20:45.509Z,100973.25
2022-10-05T03:23:26.413Z,100936.69
2022-10-05T03:26:17.300Z,100956.47
2022-10-05T03:29:10.130Z,100949.09
2022-10-05T03:31:51.598Z,100948.38
2022-10-05T03:34:38.537Z,100951.44
2022-10-05T03:37:09.806Z,100932.34
2022-10-05T03:39:41.594Z,100942.94
2022-10-05T03:42:15.835Z,100938.84
2022-10-05T03:45:10.500Z,100939.50
2022-10-05T03:47:46.714Z,100923.75
2022-10-05T03:50:16.128Z,100943.28
2022-10-05T03:52:48.361Z,100909.25
2022-10-05T03:55:21.347Z,100940.25
2022-10-05T03:57:49.144Z,100894.56
2022-10-05T04:00:23.489Z,100937.31
2022-10-05T04:02:59.971Z,100937.69
2022-10-05T04:05:33.506Z,100927.69
2022-10-05T04:08:06.241Z,100886.56
2022-10-05T04:10:44.685Z,100900.06
2022-10-05T04:13:34.653Z,100924.25
2022-10-05T04:16:11.477Z,100917.78
2022-10-05T04:19:02.850Z,100920.97
2022-10-05T04:21:33.415Z,100918.38
2022-10-05T04:24:04.599Z,100889.25
2022-10-05T04:26:37.582Z,100912.66
2022-10-05T04:29:36.747Z,100909.31
2022-10-05T04:32:16.876Z,100911.88
2022-10-05T04:34:56.632Z,100878.97
2022-10-05T04:38:13.911Z,100907.69
2022-10-05T04:41:14.915Z,100908.91
2022-10-05T04:44:02.779Z,100903.84
2022-10-05T04:46:50.928Z,100902.59
2022-10-05T04:49:38.776Z,100910.28
2022-10-05T04:52:32.825Z,100909.06
2022-10-05T04:55:19.794Z,100902.31
2022-10-05T04:57:54.694Z,100890.38
2022-10-05T05:00:44.754Z,100915.09
2022-10-05T05:03:36.384Z,100911.88
2022-10-05T05:06:18.587Z,100900.88
2022-10-05T05:09:16.977Z,100922.81
2022-10-05T05:11:58.702Z,100919.22
2022-10-05T05:14:29.273Z,100924.13
2022-10-05T05:17:15.975Z,100912.44
2022-10-05T05:19:55.841Z,100921.44
2022-10-05T05:22:40.646Z,100922.78
2022-10-05T05:25:25.447Z,100933.81
2022-10-05T05:28:05.221Z,100932.41
2022-10-05T05:30:43.108Z,100927.59
2022-10-05T05:33:18.677Z,100928.75
2022-10-05T05:36:02.785Z,100926.78
2022-10-05T05:38:41.777Z,100893.81
2022-10-05T05:41:33.939Z,100923.81
2022-10-05T05:44:03.378Z,100925.72
2022-10-05T05:47:02.179Z,100922.19
2022-10-05T05:49:51.113Z,100926.16
2022-10-05T05:52:25.949Z,100877.53
2022-10-05T05:55:08.900Z,100927.31
2022-10-05T05:57:47.119Z,100869.13
2022-10-05T06:00:13.930Z,100931.44
2022-10-05T06:02:53.210Z,100931.16
2022-10-05T06:05:31.685Z,100880.22
2022-10-05T06:08:03.453Z,100928.88
2022-10-05T06:10:44.137Z,100930.44
2022-10-05T06:13:38.627Z,100929.91
2022-10-05T06:16:18.697Z,100873.31
2022-10-05T06:18:54.016Z,100925.09
2022-10-05T06:21:31.508Z,100902.44
2022-10-05T06:24:06.016Z,100924.78
2022-10-05T06:27:00.220Z,100931.84
2022-10-05T06:29:46.346Z,100918.91
2022-10-05T06:32:31.155Z,100938.16
2022-10-05T06:35:10.003Z,100937.00
2022-10-05T06:38:00.752Z,100934.94
2022-10-05T06:40:35.170Z,100917.94
2022-10-05T06:43:24.986Z,100947.81
2022-10-05T06:46:31.596Z,100946.47
2022-10-05T06:49:19.596Z,100949.28
2022-10-05T06:52:16.900Z,100941.94
2022-10-05T06:54:55.490Z,100942.66
2022-10-05T06:57:24.994Z,100934.59
2022-10-05T07:00:01.394Z,100922.56
2022-10-05T07:02:49.629Z,100948.44
2022-10-05T07:05:31.824Z,100946.72
2022-10-05T07:08:04.428Z,100940.22
2022-10-05T07:10:31.728Z,100945.28
2022-10-05T07:13:13.529Z,100947.63
2022-10-05T07:15:52.203Z,100929.28
2022-10-05T07:18:35.252Z,100886.66
2022-10-05T07:21:30.491Z,100935.56
2022-10-05T07:24:22.593Z,100923.72
2022-10-05T07:26:57.811Z,100930.13
2022-10-05T07:29:44.956Z,100799.47
2022-10-05T07:32:24.778Z,100931.28
2022-10-05T07:35:07.896Z,100899.84
2022-10-05T07:37:54.265Z,100929.63
2022-10-05T07:40:29.515Z,100927.25
2022-10-05T07:43:05.371Z,100926.91
2022-10-05T07:45:34.067Z,100941.91
2022-10-05T07:48:20.883Z,100935.69
2022-10-05T07:51:00.243Z,100929.03
2022-10-05T07:53:41.570Z,100944.59
2022-10-05T07:56:29.644Z,100945.13
2022-10-05T07:59:01.654Z,100944.91
2022-10-05T08:01:30.305Z,100909.34
2022-10-05T08:04:01.161Z,100953.00
2022-10-05T08:06:50.965Z,100940.09
2022-10-05T08:09:30.554Z,100957.34
2022-10-05T08:12:12.366Z,100953.66
2022-10-05T08:14:59.184Z,100960.88
2022-10-05T08:17:33.433Z,100898.84
2022-10-05T08:20:24.048Z,100956.91
2022-10-05T08:22:59.265Z,100945.06
2022-10-05T08:25:34.415Z,100959.06
2022-10-05T08:28:15.506Z,100966.28
2022-10-05T08:31:01.027Z,100945.78
2022-10-05T08:33:35.199Z,100915.75
2022-10-05T08:36:08.892Z,100960.34
2022-10-05T08:38:35.622Z,100969.84
2022-10-05T08:41:36.150Z,100961.81
2022-10-05T08:44:40.271Z,100966.09
2022-10-05T08:47:13.465Z,100959.19
2022-10-05T08:49:57.161Z,100906.63
2022-10-05T08:52:42.437Z,100959.81
2022-10-05T08:55:32.142Z,100960.22
2022-10-05T08:58:17.269Z,100953.84
2022-10-05T09:01:02.003Z,100961.59
2022-10-05T09:03:46.850Z,100948.94
2022-10-05T09:06:21.893Z,100958.72
2022-10-05T09:08:54.698Z,100961.41
2022-10-05T09:11:26.430Z,100934.47
2022-10-05T09:14:01.951Z,100955.16
2022-10-05T09:16:37.837Z,100953.88
2022-10-05T09:19:29.148Z,100950.91
2022-10-05T09:21:57.084Z,100952.84
2022-10-05T09:24:28.089Z,100954.22
2022-10-05T09:27:07.896Z,100955.03
2022-10-05T09:30:18.425Z,100948.78
2022-10-05T09:33:06.716Z,100943.28
2022-10-05T09:35:58.196Z,100945.59
2022-10-05T09:38:33.577Z,100947.53
2022-10-05T09:41:30.531Z,100935.50
2022-10-05T09:44:24.913Z,100937.34
2022-10-05T09:47:24.014Z,100937.53
2022-10-05T09:50:03.270Z,100929.34
2022-10-05T09:52:51.706Z,100930.59
2022-10-05T09:55:27.153Z,100921.91
2022-10-05T09:58:08.237Z,100908.06
2022-10-05T10:00:54.200Z,100920.22
2022-10-05T10:03:57.554Z,100911.75
2022-10-05T10:06:51.446Z,100923.25
2022-10-05T10:09:22.502Z,100919.31
2022-10-05T10:12:18.288Z,100908.09
2022-10-05T10:15:01.920Z,100905.09
2022-10-05T10:17:45.048Z,100909.50
2022-10-05T10:20:49.925Z,100901.28
2022-10-05T10:23:22.376Z,100905.91
2022-10-05T10:26:06.485Z,100906.69
2022-10-05T10:28:54.485Z,100903.69
2022-10-05T10:31:27.445Z,100907.13
2022-10-05T10:34:21.539Z,100912.03
2022-10-05T10:37:20.027Z,100902.53
2022-10-05T10:39:52.380Z,100910.94
2022-10-05T10:43:13.654Z,100879.47
2022-10-05T10:45:44.070Z,100915.22
2022-10-05T10:48:12.558Z,100915.59
2022-10-05T10:51:06.798Z,100904.22
2022-10-05T10:53:51.624Z,100916.31
2022-10-05T10:56:39.356Z,100906.75
2022-10-05T10:59:26.695Z,100900.97
2022-10-05T11:02:20.774Z,100911.03
2022-10-05T11:05:03.309Z,100888.66
2022-10-05T11:07:58.175Z,100892.69
2022-10-05T11:10:52.326Z,100904.78
2022-10-05T11:13:43.241Z,100895.94
2022-10-05T11:16:57.648Z,100906.84
2022-10-05T11:20:03.044Z,100926.25
2022-10-05T11:22:56.367Z,100899.06
2022-10-05T11:25:28.867Z,100886.13
2022-10-05T11:28:27.444Z,100886.16
2022-10-05T11:31:24.862Z,100884.25
2022-10-05T11:33:51.458Z,100873.16
2022-10-05T11:36:25.668Z,100864.34
2022-10-05T11:39:05.626Z,100870.22
2022-10-05T11:41:38.635Z,100859.19
2022-10-05T11:44:26.825Z,100846.63
2022-10-05T11:47:18.664Z,100845.78
2022-10-05T11:50:09.893Z,100829.41
2022-10-05T11:52:41.989Z,100823.53
2022-10-05T11:55:32.742Z,100814.97
2022-10-05T11:58:07.414Z,100791.47
2022-10-05T12:00:44.038Z,100809.91
2022-10-05T12:03:22.929Z,100790.28
2022-10-05T12:05:52.726Z,100793.47
2022-10-05T12:08:33.039Z,100774.84
2022-10-05T12:11:14.736Z,100791.09
2022-10-05T12:13:51.343Z,100757.44
2022-10-05T12:16:34.770Z,100773.63
2022-10-05T12:19:18.705Z,100767.38
2022-10-05T12:22:15.465Z,100757.00
2022-10-05T12:25:21.654Z,100750.84
2022-10-05T12:27:52.044Z,100720.63
2022-10-05T12:30:33.790Z,100761.03
2022-10-05T12:33:08.486Z,100753.09
2022-10-05T12:35:50.045Z,100746.97
2022-10-05T12:38:28.352Z,100734.06
2022-10-05T12:41:19.676Z,100723.00
2022-10-05T12:43:54.579Z,100719.34
2022-10-05T12:46:58.825Z,100716.53
2022-10-05T12:49:36.591Z,100716.91
2022-10-05T12:52:05.666Z,100698.28
2022-10-05T12:54:32.232Z,100695.84
2022-10-05T12:57:22.306Z,100692.81
2022-10-05T13:00:21.750Z,100680.25
2022-10-05T13:02:51.268Z,100687.94
2022-10-05T13:05:39.073Z,100675.63
2022-10-05T13:08:17.874Z,100665.44
2022-10-05T13:10:50.475Z,100664.63
2022-10-05T13:13:34.775Z,100651.00
2022-10-05T13:16:30.947Z,100669.69
2022-10-05T13:19:15.757Z,100655.94
2022-10-05T13:21:52.067Z,100644.81
2022-10-05T13:24:22.589Z,100641.97
2022-10-05T13:27:00.946Z,100607.91
2022-10-05T13:30:06.545Z,100654.78
2022-10-05T13:33:04.692Z,100630.75
2022-10-05T13:35:53.278Z,100623.19
2022-10-05T13:38:28.282Z,100601.19
2022-10-05T13:41:03.299Z,100611.59
2022-10-05T13:44:04.902Z,100626.97
2022-10-05T13:46:38.065Z,100624.88
2022-10-05T13:49:13.509Z,100623.66
2022-10-05T13:51:51.270Z,100584.28
2022-10-05T13:54:37.242Z,100558.47
2022-10-05T13:57:22.486Z,100609.75
2022-10-05T14:00:02.850Z,100600.81
2022-10-05T14:02:41.402Z,100581.97
2022-10-05T14:05:21.664Z,100591.97
2022-10-05T14:07:49.806Z,100591.94
2022-10-05T14:10:29.146Z,100536.31
2022-10-05T14:12:55.898Z,100576.53
2022-10-05T14:15:29.930Z,100584.88
2022-10-05T14:17:56.896Z,100556.31
2022-10-05T14:20:27.747Z,100585.47
2022-10-05T14:23:19.747Z,100587.16
2022-10-05T14:25:53.931Z,100570.28
2022-10-05T14:28:34.936Z,100593.00
2022-10-05T14:31:08.985Z,100579.66
2022-10-05T14:33:35.664Z,100576.94
2022-10-05T14:36:02.807Z,100571.94
2022-10-05T14:38:35.183Z,100574.66
2022-10-05T14:41:06.090Z,100573.81
2022-10-05T14:43:32.944Z,100547.13
2022-10-05T14:46:23.340Z,100570.88
2022-10-05T14:49:20.379Z,100561.72
2022-10-05T14:51:47.640Z,100555.47
2022-10-05T14:54:25.224Z,100566.06
2022-10-05T14:57:36.612Z,100561.66
2022-10-05T15:00:04.039Z,100558.72
2022-10-05T15:02:52.441Z,100569.44
2022-10-05T15:05:44.008Z,100555.63
2022-10-05T15:08:30.390Z,100567.88
2022-10-05T15:11:03.585Z,100527.81
2022-10-05T15:13:39.446Z,100541.56
2022-10-05T15:16:17.391Z,100532.41
2022-10-05T15:18:44.173Z,100569.28
2022-10-05T15:21:29.260Z,100565.41
2022-10-05T15:24:09.244Z,100581.19
2022-10-05T15:26:45.839Z,100578.03
2022-10-05T15:29:26.074Z,100585.59
2022-10-05T15:31:56.064Z,100585.88
2022-10-05T15:34:42.508Z,100548.94
2022-10-05T15:37:31.886Z,100585.59
2022-10-05T15:40:03.652Z,100589.75
2022-10-05T15:42:47.200Z,100579.19
2022-10-05T15:45:41.127Z,100605.91
2022-10-05T15:48:07.646Z,100606.69
2022-10-05T15:50:58.231Z,100612.59
2022-10-05T15:54:22.477Z,100612.16
2022-10-05T15:56:56.181Z,100613.53
2022-10-05T15:59:31.175Z,100596.47
2022-10-05T16:02:01.417Z,100627.09
2022-10-05T16:04:49.740Z,100631.88
2022-10-05T16:07:49.527Z,100592.97
2022-10-05T16:10:21.310Z,100594.84
2022-10-05T16:13:12.888Z,100623.53
2022-10-05T16:15:53.409Z,100623.88
2022-10-05T16:18:32.642Z,100626.28
2022-10-05T16:21:10.395Z,100645.44
2022-10-05T16:23:55.995Z,100649.75
2022-10-05T16:26:43.617Z,100643.22
2022-10-05T16:29:15.245Z,100666.59
2022-10-05T16:31:56.861Z,100628.75
2022-10-05T16:34:32.412Z,100668.13
2022-10-05T16:37:10.611Z,100629.81
2022-10-05T16:40:06.406Z,100672.28
2022-10-05T16:42:57.122Z,100679.28
2022-10-05T16:45:44.803Z,100626.13
2022-10-05T16:48:18.034Z,100690.94
2022-10-05T16:50:56.587Z,100689.69
2022-10-05T16:53:28.929Z,100698.44
2022-10-05T16:56:01.051Z,100658.34
2022-10-05T16:58:37.071Z,100671.41
2022-10-05T17:01:21.395Z,100704.00
2022-10-05T17:04:07.621Z,100714.59
2022-10-05T17:06:40.479Z,100713.31
2022-10-05T17:09:22.173Z,100713.19
2022-10-05T17:12:05.916Z,100733.38
2022-10-05T17:14:40.693Z,100732.47
2022-10-05T17:17:33.388Z,100738.25
2022-10-05T17:20:11.990Z,100749.00
2022-10-05T17:23:04.043Z,100749.13
2022-10-05T17:25:45.530Z,100746.44
2022-10-05T17:28:30.871Z,100748.38
2022-10-05T17:31:14.000Z,100763.88
2022-10-05T17:33:59.249Z,100764.00
2022-10-05T17:36:44.006Z,100774.78
2022-10-05T17:39:19.446Z,100775.13
2022-10-05T17:41:46.295Z,100738.72
2022-10-05T17:44:26.407Z,100786.31
2022-10-05T17:46:59.634Z,100784.53
2022-10-05T17:49:41.151Z,100800.00
2022-10-05T17:52:41.835Z,100800.94
2022-10-05T17:55:27.924Z,100789.78
2022-10-05T17:57:58.629Z,100811.84
2022-10-05T18:00:42.028Z,100783.59
2022-10-05T18:03:56.881Z,100824.06
2022-10-05T18:06:26.298Z,100837.66
2022-10-05T18:09:21.904Z,100841.41
2022-10-05T18:12:03.690Z,100838.22
2022-10-05T18:14:55.958Z,100846.97
2022-10-05T18:17:45.526Z,100849.00
2022-10-05T18:20:13.523Z,100859.47
2022-10-05T18:22:40.113Z,100854.84
2022-10-05T18:25:39.724Z,100839.88
2022-10-05T18:28:24.748Z,100869.34
2022-10-05T18:31:29.079Z,100874.25
2022-10-05T18:34:17.311Z,100869.19
2022-10-05T18:37:09.999Z,100877.44
2022-10-05T18:40:04.329Z,100886.09
2022-10-05T18:42:58.398Z,100882.59
2022-10-05T18:45:46.482Z,100886.31
2022-10-05T18:48:19.235Z,100886.13
2022-10-05T18:51:08.305Z,100900.34
2022-10-05T18:53:44.057Z,100901.88
2022-10-05T18:56:33.284Z,100897.47
2022-10-05T18:59:24.602Z,100897.59
2022-10-05T19:02:05.537Z,100908.19
2022-10-05T19:05:04.485Z,100874.56
2022-10-05T19:08:08.659Z,100910.34
2022-10-05T19:10:51.950Z,100896.56
2022-10-05T19:14:04.526Z,100912.56
2022-10-05T19:16:41.921Z,100894.88
2022-10-05T19:19:30.905Z,100909.88
2022-10-05T19:22:07.014Z,100906.66
2022-10-05T19:24:37.481Z,100910.19
2022-10-05T19:27:45.279Z,100917.75
2022-10-05T19:30:18.837Z,100925.81
2022-10-05T19:33:00.980Z,100924.06
2022-10-05T19:35:58.058Z,100912.03
2022-10-05T19:39:09.257Z,100913.91
2022-10-05T19:42:08.167Z,100908.13
2022-10-05T19:45:02.754Z,100897.00
2022-10-05T19:48:13.852Z,100911.84
2022-10-05T19:50:52.988Z,100911.16
2022-10-05T19:53:30.053Z,100908.06
2022-10-05T19:55:56.977Z,100927.16
2022-10-05T19:58:25.237Z,100921.41
2022-10-05T20:00:59.942Z,100927.09
2022-10-05T20:03:29.637Z,100926.63
2022-10-05T20:06:00.071Z,100933.03
2022-10-05T20:08:31.974Z,100925.09
2022-10-05T20:11:05.372Z,100931.66
2022-10-05T20:13:35.035Z,100939.22
2022-10-05T20:16:35.814Z,100940.59
2022-10-05T20:19:34.692Z,100933.66
2022-10-05T20:22:29.394Z,100939.81
2022-10-05T20:25:05.653Z,100906.59
2022-10-05T20:27:55.384Z,100936.81
2022-10-05T20:30:27.364Z,100940.91
2022-10-05T20:33:10.419Z,100946.97
2022-10-05T20:35:36.953Z,100942.72
2022-10-05T20:38:03.528Z,100950.97
2022-10-05T20:40:31.766Z,100904.94
2022-10-05T20:42:58.918Z,100949.44
2022-10-05T20:45:26.056Z,100957.88
2022-10-05T20:47:52.626Z,100964.66
2022-10-05T20:50:20.618Z,100959.56
2022-10-05T20:52:47.201Z,100934.72
2022-10-05T20:55:13.888Z,100968.44
2022-10-05T20:57:42.262Z,100927.16
2022-10-05T21:00:12.997Z,100963.38
2022-10-05T21:02:40.014Z,100959.59
2022-10-05T21:05:07.573Z,100920.03
2022-10-05T21:07:35.215Z,100981.59
2022-10-05T21:10:03.841Z,100983.19
2022-10-05T21:12:30.519Z,100975.38
2022-10-05T21:14:57.213Z,100936.03
2022-10-05T21:17:23.725Z,100990.34
2022-10-05T21:19:50.543Z,100985.16
2022-10-05T21:22:17.150Z,100963.13
2022-10-05T21:24:43.944Z,100998.59
2022-10-05T21:27:10.434Z,100985.56
2022-10-05T21:29:37.086Z,100945.63
2022-10-05T21:32:08.381Z,100978.59
2022-10-05T21:34:35.177Z,100973.38
2022-10-05T21:37:01.690Z,100979.31
2022-10-05T21:39:28.305Z,100972.53
2022-10-05T21:41:55.018Z,101003.81
2022-10-05T21:44:21.783Z,101000.47
2022-10-05T21:46:48.474Z,100977.63
2022-10-05T21:49:19.489Z,100989.41
2022-10-05T21:51:46.400Z,100922.47
2022-10-05T21:54:18.256Z,100994.91
2022-10-05T21:56:48.467Z,100997.94
2022-10-05T21:59:17.025Z,100970.34
2022-10-05T22:01:43.539Z,100972.22
2022-10-05T22:04:10.087Z,100956.91
2022-10-05T22:06:36.701Z,100994.75
2022-10-05T22:09:04.301Z,101001.81
2022-10-05T22:11:31.658Z,100981.94
2022-10-05T22:14:02.404Z,100993.41
2022-10-05T22:16:34.973Z,100976.59
2022-10-05T22:19:04.223Z,101016.13
2022-10-05T22:21:32.833Z,101026.53
2022-10-05T22:24:02.478Z,101041.16
2022-10-05T22:26:29.727Z,101044.53
2022-10-05T22:28:57.011Z,101065.06
2022-10-05T22:31:23.849Z,101080.13
2022-10-05T22:33:50.683Z,101107.41
2022-10-05T22:36:17.395Z,101108.00
2022-10-05T22:38:44.771Z,101105.38
2022-10-05T22:41:12.821Z,101071.66
2022-10-05T22:43:39.714Z,101125.00
2022-10-05T22:46:13.531Z,101088.88
2022-10-05T22:48:40.406Z,101077.50
2022-10-05T22:51:07.585Z,101093.97
2022-10-05T22:53:35.111Z,101123.56
2022-10-05T22:56:06.453Z,101134.09
2022-10-05T22:58:32.993Z,101096.56
2022-10-05T23:01:04.324Z,101095.81
2022-10-05T23:03:31.807Z,101147.44
2022-10-05T23:06:03.744Z,101140.91
2022-10-05T23:08:32.030Z,101150.56
2022-10-05T23:11:06.642Z,101152.75
2022-10-05T23:13:34.534Z,101139.03
2022-10-05T23:16:07.665Z,101173.50
2022-10-05T23:18:34.360Z,101172.88
2022-10-05T23:21:01.340Z,101150.94
2022-10-05T23:23:27.858Z,101187.84
2022-10-05T23:25:59.497Z,101165.84
2022-10-05T23:28:26.856Z,101168.94
2022-10-05T23:30:58.856Z,101216.13
2022-10-05T23:33:26.992Z,101036.50
2022-10-05T23:36:04.010Z,101229.94
2022-10-05T23:38:31.508Z,101223.03
2022-10-05T23:40:59.717Z,101243.00
2022-10-05T23:43:27.098Z,101266.06
2022-10-05T23:45:53.616Z,101243.94
2022-10-05T23:48:20.181Z,101271.53
2022-10-05T23:50:46.929Z,101253.06
2022-10-05T23:53:14.126Z,101293.31
2022-10-05T23:55:40.646Z,101318.84
2022-10-05T23:58:07.290Z,101313.75
